Time;durP1;ratioP1;P1;durP2;ratioP2;P2;SDS_P1;SDS_P2;PMS_P1;PMS_P2;Temp;Humidity;BMP_temperature;BMP_pressure;BME280_temperature;BME280_humidity;BME280_pressure;Samples;Min_cycle;Max_cycle;Signal;HPM_P1;HPM_P2
2022/12/24 00:00:11;;;;;;;10.52;7.80;;;;;;;5.91;100.00;99582.19;5055698;28;20049;-65
2022/12/24 00:02:38;;;;;;;10.98;8.23;;;;;;;5.89;100.00;99577.97;5052149;28;20038;-65
2022/12/24 00:05:06;;;;;;;10.43;8.77;;;;;;;5.86;100.00;99580.78;5054483;28;20128;-64
2022/12/24 00:07:33;;;;;;;10.57;8.57;;;;;;;5.92;100.00;99577.84;5049601;28;20484;-66
2022/12/24 00:10:00;;;;;;;10.63;8.43;;;;;;;5.90;100.00;99577.91;5044289;28;20420;-65
2022/12/24 00:12:27;;;;;;;13.45;8.40;;;;;;;5.93;100.00;99580.34;5026594;28;20053;-64
2022/12/24 00:14:54;;;;;;;10.23;8.70;;;;;;;5.92;100.00;99583.91;5047213;28;20135;-64
2022/12/24 00:17:21;;;;;;;10.48;7.85;;;;;;;5.94;100.00;99584.66;5048037;28;20079;-65
2022/12/24 00:19:49;;;;;;;10.98;8.00;;;;;;;5.95;100.00;99577.69;5048951;28;20067;-64
2022/12/24 00:22:16;;;;;;;10.23;7.85;;;;;;;6.00;100.00;99573.03;5049885;28;20328;-65
2022/12/24 00:24:43;;;;;;;16.00;8.00;;;;;;;6.05;100.00;99582.28;5028039;28;20056;-64
2022/12/24 00:27:10;;;;;;;10.05;7.70;;;;;;;6.05;100.00;99571.00;5050554;28;20079;-65
2022/12/24 00:29:37;;;;;;;10.20;7.30;;;;;;;5.97;100.00;99574.03;5031678;28;20133;-65
2022/12/24 00:32:08;;;;;;;11.82;7.55;;;;;;;5.93;100.00;99571.69;5048540;28;20619;-66
2022/12/24 00:34:36;;;;;;;10.40;7.57;;;;;;;5.86;100.00;99575.56;5036829;28;20054;-65
2022/12/24 00:37:03;;;;;;;12.00;7.47;;;;;;;5.91;100.00;99578.75;5036367;28;20056;-65
2022/12/24 00:39:31;;;;;;;11.90;8.23;;;;;;;5.94;100.00;99579.41;5012990;28;20049;-64
2022/12/24 00:41:58;;;;;;;10.50;7.28;;;;;;;5.98;100.00;99578.31;5023399;28;20059;-64
2022/12/24 00:44:25;;;;;;;10.80;7.57;;;;;;;5.99;100.00;99580.03;5034457;28;20148;-64
2022/12/24 00:46:52;;;;;;;13.75;8.23;;;;;;;5.98;100.00;99583.53;4997953;28;20077;-64
2022/12/24 00:49:20;;;;;;;11.50;7.70;;;;;;;5.94;100.00;99586.41;5011164;28;20461;-65
2022/12/24 00:51:47;;;;;;;9.98;7.80;;;;;;;5.92;100.00;99591.75;5043330;28;20148;-64
2022/12/24 00:54:14;;;;;;;11.93;7.90;;;;;;;5.96;100.00;99593.25;5044025;28;20063;-64
2022/12/24 00:56:41;;;;;;;12.77;8.07;;;;;;;5.99;100.00;99594.84;5016994;28;21639;-65
2022/12/24 00:59:08;;;;;;;11.52;7.78;;;;;;;5.94;100.00;99596.88;5042945;28;20069;-63
2022/12/24 01:01:36;;;;;;;10.88;8.20;;;;;;;5.97;100.00;99600.16;5049892;28;20139;-64
2022/12/24 01:06:49;;;;;;;10.27;7.00;;;;;;;6.01;100.00;99612.13;5038782;28;20054;-64
2022/12/24 01:09:16;;;;;;;10.20;7.80;;;;;;;6.05;100.00;99610.19;5049490;28;20065;-63
2022/12/24 01:11:45;;;;;;;9.20;6.55;;;;;;;6.03;100.00;99610.28;5044951;28;20161;-64
2022/12/24 01:14:12;;;;;;;9.68;7.07;;;;;;;6.08;100.00;99623.09;5053020;28;20204;-64
2022/12/24 01:16:39;;;;;;;11.23;7.63;;;;;;;6.06;100.00;99623.16;5048277;28;20056;-65
2022/12/24 01:19:06;;;;;;;11.32;7.25;;;;;;;6.06;100.00;99617.94;5044319;28;20080;-64
2022/12/24 01:21:33;;;;;;;10.05;7.65;;;;;;;5.99;100.00;99624.44;5045790;28;20060;-64
2022/12/24 01:24:01;;;;;;;9.98;7.32;;;;;;;5.96;100.00;99618.53;5050393;28;20436;-64
2022/12/24 01:26:28;;;;;;;10.77;7.43;;;;;;;6.00;100.00;99620.06;5052252;28;20128;-64
2022/12/24 01:28:56;;;;;;;15.27;7.88;;;;;;;5.93;100.00;99624.75;5033836;28;20040;-64
2022/12/24 01:31:23;;;;;;;8.80;6.90;;;;;;;5.89;100.00;99618.00;5051680;28;20045;-64
2022/12/24 01:33:50;;;;;;;10.32;7.15;;;;;;;5.89;100.00;99623.22;5026754;28;20049;-64
2022/12/24 01:36:17;;;;;;;11.68;7.55;;;;;;;5.88;100.00;99623.31;5042491;28;20055;-63
2022/12/24 01:38:44;;;;;;;9.85;7.13;;;;;;;5.84;100.00;99625.25;5045170;28;20054;-63
2022/12/24 01:44:19;;;;;;;10.68;7.60;;;;;;;5.97;100.00;99623.66;5041493;28;20128;-65
2022/12/24 01:46:47;;;;;;;8.95;7.40;;;;;;;5.90;100.00;99631.88;5051613;28;20135;-64
2022/12/24 01:49:15;;;;;;;10.52;7.18;;;;;;;5.87;100.00;99630.31;5049932;28;20049;-65
2022/12/24 01:51:46;;;;;;;9.18;7.78;;;;;;;5.90;100.00;99635.38;5041026;28;20051;-64
2022/12/24 01:54:22;;;;;;;11.48;8.60;;;;;;;5.89;100.00;99644.09;5025579;28;20057;-64
2022/12/24 01:56:57;;;;;;;12.80;7.97;;;;;;;5.90;100.00;99642.34;5052104;28;20124;-65
2022/12/24 01:59:24;;;;;;;11.00;7.97;;;;;;;5.91;100.00;99647.50;5049989;28;20068;-64
2022/12/24 02:01:52;;;;;;;11.23;7.60;;;;;;;5.91;100.00;99650.09;5051890;28;20057;-65
2022/12/24 02:04:34;;;;;;;11.75;7.47;;;;;;;5.96;100.00;99652.50;5050563;28;20132;-65
2022/12/24 02:07:02;;;;;;;10.52;7.47;;;;;;;5.88;100.00;99657.25;5048966;28;20068;-67
2022/12/24 02:09:29;;;;;;;10.05;7.63;;;;;;;5.83;100.00;99655.75;5042978;28;20145;-65
2022/12/24 02:11:57;;;;;;;10.38;8.20;;;;;;;5.89;100.00;99665.00;5015270;28;20071;-64
2022/12/24 02:14:26;;;;;;;10.93;8.07;;;;;;;5.88;100.00;99670.31;5017324;28;20398;-65
2022/12/24 02:17:18;;;;;;;12.15;8.60;;;;;;;5.88;100.00;99670.31;5030958;28;20132;-65
2022/12/24 02:20:16;;;;;;;11.85;8.80;;;;;;;5.91;100.00;99673.63;5019724;28;20147;-64
2022/12/24 02:22:52;;;;;;;12.98;8.90;;;;;;;5.89;100.00;99683.28;5045016;28;20053;-65
2022/12/24 02:25:32;;;;;;;12.73;9.05;;;;;;;5.90;100.00;99682.38;5038488;28;20091;-64
2022/12/24 02:28:21;;;;;;;12.35;9.52;;;;;;;5.92;100.00;99679.72;5044546;28;20053;-64
2022/12/24 02:30:52;;;;;;;12.57;9.48;;;;;;;5.91;100.00;99688.44;5046580;28;20068;-64
2022/12/24 02:33:59;;;;;;;13.95;10.70;;;;;;;5.88;100.00;99699.91;5048632;28;20041;-65
2022/12/24 02:36:41;;;;;;;12.23;9.18;;;;;;;5.89;100.00;99701.56;5036014;28;20123;-65
2022/12/24 02:39:12;;;;;;;15.77;10.20;;;;;;;5.93;100.00;99704.91;5036653;28;20055;-64
2022/12/24 02:44:29;;;;;;;12.38;9.63;;;;;;;5.95;100.00;99706.53;5035549;28;20063;-65
2022/12/24 02:46:58;;;;;;;13.05;10.13;;;;;;;5.97;100.00;99715.09;5031416;28;20080;-64
2022/12/24 02:49:25;;;;;;;13.27;9.95;;;;;;;5.93;100.00;99717.97;5000596;28;20077;-64
2022/12/24 02:51:52;;;;;;;13.95;9.90;;;;;;;5.90;100.00;99712.88;5035387;28;20049;-64
2022/12/24 02:54:19;;;;;;;13.77;10.13;;;;;;;5.90;100.00;99721.56;5048272;28;20135;-65
2022/12/24 02:57:16;;;;;;;11.80;9.00;;;;;;;5.92;100.00;99731.97;5030299;28;20052;-64
2022/12/24 02:59:59;;;;;;;12.68;9.73;;;;;;;5.88;100.00;99731.25;5043799;28;20073;-64
2022/12/24 03:02:30;;;;;;;16.95;10.02;;;;;;;5.89;100.00;99732.09;5033016;28;20436;-64
2022/12/24 03:05:09;;;;;;;12.30;9.52;;;;;;;5.94;100.00;99736.16;5034912;28;20049;-64
2022/12/24 03:08:01;;;;;;;13.25;10.00;;;;;;;5.94;100.00;99735.31;5037566;28;20428;-64
2022/12/24 03:10:36;;;;;;;10.98;8.60;;;;;;;5.92;100.00;99737.19;5032116;28;20053;-65
2022/12/24 03:13:08;;;;;;;12.20;9.40;;;;;;;5.94;100.00;99736.16;5019775;28;20124;-63
2022/12/24 03:15:36;;;;;;;12.30;9.23;;;;;;;5.89;100.00;99732.91;5046144;28;20067;-65
2022/12/24 03:18:05;;;;;;;12.98;9.63;;;;;;;5.85;100.00;99741.84;5030653;28;20132;-65
2022/12/24 03:21:13;;;;;;;15.85;10.25;;;;;;;5.86;100.00;99743.56;5027976;28;20063;-66
2022/12/24 03:23:40;;;;;;;13.32;9.40;;;;;;;5.88;100.00;99744.31;5007218;28;20511;-64
2022/12/24 03:26:08;;;;;;;13.02;10.13;;;;;;;5.87;100.00;99747.00;5041778;28;20681;-64
2022/12/24 03:28:38;;;;;;;13.07;10.10;;;;;;;5.89;100.00;99747.75;5031094;28;20614;-64
2022/12/24 03:31:06;;;;;;;13.32;10.65;;;;;;;5.84;100.00;99754.06;5025705;28;20081;-64
2022/12/24 03:33:34;;;;;;;14.68;10.25;;;;;;;5.84;100.00;99755.84;5041805;28;20058;-64
2022/12/24 03:36:01;;;;;;;14.13;10.13;;;;;;;5.87;100.00;99758.28;5042945;28;20049;-64
2022/12/24 03:38:29;;;;;;;13.50;10.02;;;;;;;5.91;100.00;99766.81;5045279;28;20116;-65
2022/12/24 03:40:56;;;;;;;17.73;10.95;;;;;;;5.87;100.00;99766.13;5041980;28;20616;-64
2022/12/24 03:43:24;;;;;;;14.85;10.60;;;;;;;5.83;100.00;99764.59;5046696;28;20053;-65
2022/12/24 03:45:51;;;;;;;13.90;9.70;;;;;;;5.81;100.00;99772.53;5049383;28;20048;-64
2022/12/24 03:48:18;;;;;;;14.32;10.38;;;;;;;5.88;100.00;99767.81;5049027;28;20045;-64
2022/12/24 03:50:45;;;;;;;14.63;10.70;;;;;;;5.90;100.00;99781.66;5047179;28;20126;-64
2022/12/24 03:53:13;;;;;;;14.18;10.23;;;;;;;5.88;100.00;99775.66;5049572;28;20053;-64
2022/12/24 03:55:40;;;;;;;14.68;10.00;;;;;;;5.91;100.00;99790.34;5050121;28;20095;-64
2022/12/24 03:58:07;;;;;;;13.43;9.85;;;;;;;5.87;100.00;99792.25;5034803;28;20143;-63
2022/12/24 04:00:34;;;;;;;11.95;9.38;;;;;;;5.87;100.00;99794.88;5044147;28;20076;-64
2022/12/24 04:03:01;;;;;;;15.77;10.23;;;;;;;5.87;100.00;99800.09;5049829;28;20131;-63
2022/12/24 04:05:29;;;;;;;12.32;9.98;;;;;;;5.90;100.00;99799.94;5049487;28;20079;-64
2022/12/24 04:07:56;;;;;;;12.40;9.07;;;;;;;5.83;100.00;99804.63;5044780;28;20164;-64
2022/12/24 04:10:23;;;;;;;13.50;9.90;;;;;;;5.77;100.00;99804.97;5035223;28;20478;-64
2022/12/24 04:12:50;;;;;;;12.85;9.18;;;;;;;5.72;100.00;99806.97;5044315;28;20143;-65
2022/12/24 04:15:17;;;;;;;12.43;10.00;;;;;;;5.73;100.00;99802.59;5047237;28;20110;-64
2022/12/24 04:17:44;;;;;;;13.65;9.25;;;;;;;5.74;100.00;99797.28;5047789;28;20148;-64
2022/12/24 04:20:12;;;;;;;11.90;9.60;;;;;;;5.77;100.00;99785.84;5045729;28;20048;-64
2022/12/24 04:22:41;;;;;;;15.00;10.43;;;;;;;5.77;100.00;99793.66;5048837;28;20114;-64
2022/12/24 04:25:08;;;;;;;16.30;9.45;;;;;;;5.81;100.00;99797.81;5048696;28;20623;-65
2022/12/24 04:27:35;;;;;;;13.32;9.05;;;;;;;5.83;100.00;99802.00;5038868;28;20045;-65
2022/12/24 04:30:03;;;;;;;14.18;10.38;;;;;;;5.73;100.00;99807.81;5046737;28;20051;-64
2022/12/24 04:32:30;;;;;;;12.07;9.30;;;;;;;5.68;100.00;99813.28;5041483;28;20053;-65
2022/12/24 04:34:57;;;;;;;12.90;10.35;;;;;;;5.68;100.00;99812.44;5042198;28;20621;-65
2022/12/24 04:37:25;;;;;;;16.25;8.98;;;;;;;5.70;100.00;99813.19;5045230;28;20605;-65
2022/12/24 04:39:52;;;;;;;13.35;9.60;;;;;;;5.72;100.00;99826.97;5042800;28;20133;-65
2022/12/24 04:42:19;;;;;;;11.38;9.43;;;;;;;5.76;100.00;99836.34;5046674;28;20531;-65
2022/12/24 04:44:46;;;;;;;11.43;8.95;;;;;;;5.76;100.00;99837.22;5035041;28;20091;-65
2022/12/24 04:47:13;;;;;;;12.38;8.77;;;;;;;5.80;100.00;99848.34;5046225;28;20073;-64
2022/12/24 04:49:40;;;;;;;12.10;9.63;;;;;;;5.80;100.00;99857.00;5045779;28;20072;-65
2022/12/24 04:52:07;;;;;;;11.95;9.25;;;;;;;5.82;100.00;99857.78;5044840;28;20461;-65
2022/12/24 04:54:35;;;;;;;10.35;8.93;;;;;;;5.78;100.00;99858.03;5043811;28;20524;-65
2022/12/24 04:57:02;;;;;;;13.30;9.05;;;;;;;5.80;100.00;99872.69;5048675;28;20087;-64
2022/12/24 04:59:29;;;;;;;14.10;10.07;;;;;;;5.73;100.00;99862.66;5036898;28;20444;-65
2022/12/24 05:01:56;;;;;;;14.75;9.15;;;;;;;5.76;100.00;99868.56;5049088;28;20132;-65
2022/12/24 05:04:24;;;;;;;13.35;9.20;;;;;;;5.83;100.00;99861.25;5048647;28;20051;-65
2022/12/24 05:06:51;;;;;;;14.30;10.02;;;;;;;5.86;100.00;99863.72;5046539;28;20049;-65
2022/12/24 05:09:18;;;;;;;12.63;8.65;;;;;;;5.79;100.00;99875.38;5046874;28;20049;-64
2022/12/24 05:11:45;;;;;;;12.23;9.50;;;;;;;5.74;100.00;99875.63;5033278;28;20059;-63
2022/12/24 05:14:12;;;;;;;13.52;10.32;;;;;;;5.75;100.00;99866.84;5047711;28;20124;-65
2022/12/24 05:16:40;;;;;;;13.57;9.32;;;;;;;5.77;100.00;99872.03;5042440;28;20520;-63
2022/12/24 05:19:07;;;;;;;11.90;9.82;;;;;;;5.81;100.00;99876.16;5048626;28;20514;-64
2022/12/24 05:21:34;;;;;;;12.48;9.75;;;;;;;5.88;100.00;99868.84;5044579;28;20080;-64
2022/12/24 05:26:49;;;;;;;12.80;9.43;;;;;;;5.82;100.00;99867.41;5047286;23;20501;-86
2022/12/24 05:29:16;;;;;;;13.40;9.73;;;;;;;5.76;100.00;99879.00;5014732;28;20083;-86
2022/12/24 05:31:44;;;;;;;13.85;10.07;;;;;;;5.80;100.00;99864.84;5021868;28;20072;-86
2022/12/24 05:34:14;;;;;;;12.70;9.45;;;;;;;5.83;100.00;99867.31;5010174;28;20036;-87
2022/12/24 05:36:42;;;;;;;13.98;10.32;;;;;;;5.72;100.00;99866.16;5013812;28;20088;-86
2022/12/24 05:39:15;;;;;;;15.27;10.68;;;;;;;5.69;100.00;99874.16;5067663;28;20071;-84
2022/12/24 05:41:43;;;;;;;12.40;9.73;;;;;;;5.69;100.00;99875.00;5059689;28;20044;-84
2022/12/24 05:44:10;;;;;;;15.73;10.65;;;;;;;5.77;100.00;99877.25;5022610;28;20041;-85
2022/12/24 05:46:38;;;;;;;12.65;10.00;;;;;;;5.79;100.00;99872.78;5047188;28;20079;-86
2022/12/24 05:49:06;;;;;;;12.98;10.02;;;;;;;5.76;100.00;99881.63;5058211;28;20041;-85
2022/12/24 05:51:33;;;;;;;13.88;10.30;;;;;;;5.74;100.00;99895.66;5044719;28;20045;-85
2022/12/24 05:54:00;;;;;;;14.43;9.82;;;;;;;5.74;100.00;99903.50;5035674;28;20116;-84
2022/12/24 05:56:28;;;;;;;13.52;10.18;;;;;;;5.77;100.00;99893.75;5028687;28;20048;-84
2022/12/24 05:58:56;;;;;;;12.55;9.68;;;;;;;5.74;100.00;99887.84;5049779;28;20029;-87
2022/12/24 06:01:24;;;;;;;15.10;10.13;;;;;;;5.77;100.00;99900.75;5033336;28;20094;-86
2022/12/24 06:03:52;;;;;;;12.10;9.48;;;;;;;5.81;100.00;99903.13;5042550;28;20051;-86
2022/12/24 06:06:25;;;;;;;18.40;10.07;;;;;;;5.82;100.00;99914.41;5045523;28;20045;-86
2022/12/24 06:08:54;;;;;;;12.10;10.15;;;;;;;5.83;100.00;99918.72;5051014;28;20048;-85
2022/12/24 06:11:24;;;;;;;14.70;10.27;;;;;;;5.84;100.00;99912.56;5047462;28;20029;-85
2022/12/24 06:13:52;;;;;;;15.68;11.98;;;;;;;5.79;100.00;99904.13;5044393;28;20045;-86
2022/12/24 06:16:21;;;;;;;14.38;10.95;;;;;;;5.78;100.00;99913.72;5054895;28;20028;-86
2022/12/24 06:18:48;;;;;;;13.57;10.18;;;;;;;5.79;100.00;99914.56;5046487;28;20056;-86
2022/12/24 06:21:17;;;;;;;16.27;10.73;;;;;;;5.81;100.00;99912.72;5057498;28;20036;-84
2022/12/24 06:23:44;;;;;;;15.98;10.98;;;;;;;5.76;100.00;99918.19;5050356;28;20037;-87
2022/12/24 06:26:16;;;;;;;13.63;9.75;;;;;;;5.77;100.00;99921.63;5051090;28;20037;-87
2022/12/24 06:28:44;;;;;;;14.55;10.68;;;;;;;5.82;100.00;99930.09;5063673;28;20036;-85
2022/12/24 06:31:14;;;;;;;16.45;11.60;;;;;;;5.85;100.00;99932.53;5045112;28;20049;-85
2022/12/24 06:33:42;;;;;;;14.77;10.80;;;;;;;5.85;100.00;99929.91;5051116;28;20041;-85
2022/12/24 06:36:19;;;;;;;14.32;11.23;;;;;;;5.78;100.00;99937.22;5026114;28;20052;-85
2022/12/24 06:38:46;;;;;;;13.35;10.70;;;;;;;5.72;100.00;99944.50;5042101;28;20487;-85
2022/12/24 06:41:15;;;;;;;14.85;10.68;;;;;;;5.75;100.00;99950.44;5040946;28;20145;-86
2022/12/24 06:43:44;;;;;;;17.95;12.15;;;;;;;5.79;100.00;99957.19;5055534;28;20051;-86
2022/12/24 06:46:11;;;;;;;14.32;11.15;;;;;;;5.84;100.00;99959.56;5058625;28;20063;-86
2022/12/24 06:48:38;;;;;;;17.40;11.63;;;;;;;5.85;100.00;99953.41;5038838;28;20044;-85
2022/12/24 06:51:05;;;;;;;15.45;11.20;;;;;;;5.84;100.00;99955.19;5045301;28;20067;-86
2022/12/24 06:53:33;;;;;;;17.42;11.77;;;;;;;5.89;100.00;99957.56;5029397;28;20059;-86
2022/12/24 06:56:05;;;;;;;15.80;10.60;;;;;;;5.91;100.00;99960.97;5043794;28;20147;-86
2022/12/24 06:58:33;;;;;;;17.40;11.80;;;;;;;5.93;100.00;99963.53;5042836;28;20033;-85
2022/12/24 07:01:05;;;;;;;16.88;11.98;;;;;;;5.84;100.00;99964.78;5052236;28;20048;-86
2022/12/24 07:03:33;;;;;;;17.33;11.10;;;;;;;5.82;100.00;99964.03;5066947;28;20698;-86
2022/12/24 07:06:01;;;;;;;14.75;11.02;;;;;;;5.83;100.00;99970.94;5050808;28;20414;-85
2022/12/24 07:08:28;;;;;;;15.05;11.60;;;;;;;5.84;100.00;99973.47;5055856;28;20044;-86
2022/12/24 07:10:55;;;;;;;16.02;11.00;;;;;;;5.87;100.00;99975.09;5063470;28;20050;-86
2022/12/24 07:13:22;;;;;;;16.52;11.27;;;;;;;5.84;100.00;99976.09;5032044;28;20529;-85
2022/12/24 07:16:00;;;;;;;15.02;10.32;;;;;;;5.86;100.00;99983.03;5044273;28;20136;-85
2022/12/24 07:18:28;;;;;;;13.18;10.93;;;;;;;5.88;100.00;99996.84;5016788;28;20147;-86
2022/12/24 07:20:56;;;;;;;17.77;11.40;;;;;;;5.81;100.00;100001.53;5030357;28;20071;-85
2022/12/24 07:23:24;;;;;;;15.18;10.88;;;;;;;5.80;100.00;100002.44;5029314;28;20067;-85
2022/12/24 07:25:51;;;;;;;16.60;12.15;;;;;;;5.83;100.00;100013.59;5041210;28;20060;-84
2022/12/24 07:28:18;;;;;;;17.23;11.40;;;;;;;5.86;100.00;100017.81;5057207;28;20075;-84
2022/12/24 07:30:57;;;;;;;14.88;10.55;;;;;;;5.87;100.00;100023.88;5044362;28;20037;-85
2022/12/24 07:33:25;;;;;;;14.60;10.88;;;;;;;5.85;100.00;100021.34;5047014;28;20050;-85
2022/12/24 07:36:17;;;;;;;15.07;10.45;;;;;;;5.87;100.00;100022.13;5038006;28;20443;-86
2022/12/24 07:38:44;;;;;;;17.35;11.80;;;;;;;5.83;100.00;100029.25;5027168;28;20064;-86
2022/12/24 07:41:12;;;;;;;14.32;11.00;;;;;;;5.85;100.00;100034.41;5026158;28;20102;-85
2022/12/24 07:43:40;;;;;;;18.00;12.40;;;;;;;5.82;100.00;100037.19;5051786;28;20049;-84
2022/12/24 07:46:07;;;;;;;13.50;10.43;;;;;;;5.76;100.00;100024.41;5045347;28;20067;-84
2022/12/24 07:48:34;;;;;;;14.25;10.52;;;;;;;5.73;100.00;100032.41;5032806;28;20032;-86
2022/12/24 07:51:02;;;;;;;16.83;11.95;;;;;;;5.77;100.00;100039.16;5046860;28;20075;-85
2022/12/24 07:53:30;;;;;;;15.98;10.85;;;;;;;5.74;100.00;100041.91;5025456;28;20045;-87
2022/12/24 07:55:58;;;;;;;14.13;11.07;;;;;;;5.69;100.00;100049.13;5040173;28;20051;-85
2022/12/24 07:58:25;;;;;;;15.35;11.80;;;;;;;5.74;100.00;100047.16;5056599;28;20037;-84
2022/12/24 08:00:59;;;;;;;15.13;11.38;;;;;;;5.78;100.00;100052.16;5058410;28;20043;-86
2022/12/24 08:03:26;;;;;;;16.98;11.10;;;;;;;5.75;100.00;100054.91;5049495;28;20079;-84
2022/12/24 08:05:54;;;;;;;15.65;11.50;;;;;;;5.76;100.00;100053.13;5040184;28;20036;-85
2022/12/24 08:08:24;;;;;;;17.60;11.77;;;;;;;5.78;100.00;100046.91;5056146;28;20039;-85
2022/12/24 08:10:52;;;;;;;14.35;10.82;;;;;;;5.83;100.00;100051.91;5032600;28;20028;-86
2022/12/24 08:13:19;;;;;;;17.27;11.40;;;;;;;5.87;100.00;100050.00;5024254;28;20040;-85
2022/12/24 08:15:47;;;;;;;16.23;11.13;;;;;;;5.88;100.00;100054.31;5051484;28;20087;-86
2022/12/24 08:18:17;;;;;;;13.95;11.27;;;;;;;5.90;100.00;100061.16;5037415;28;20440;-86
2022/12/24 08:20:45;;;;;;;15.98;11.43;;;;;;;5.90;100.00;100061.16;5037937;28;20048;-86
2022/12/24 08:23:12;;;;;;;16.15;11.68;;;;;;;5.84;100.00;100061.44;5024215;28;20037;-86
2022/12/24 08:25:43;;;;;;;16.25;11.73;;;;;;;5.88;100.00;100059.53;5036636;28;20053;-85
2022/12/24 08:28:12;;;;;;;16.98;11.90;;;;;;;5.90;100.00;100058.56;5025939;28;20040;-84
2022/12/24 08:30:40;;;;;;;16.63;12.25;;;;;;;5.94;100.00;100056.66;5051318;28;20129;-85
2022/12/24 08:33:07;;;;;;;20.13;12.27;;;;;;;5.92;100.00;100064.56;5037112;28;20271;-85
2022/12/24 08:35:35;;;;;;;17.75;13.25;;;;;;;5.86;100.00;100070.06;5050752;28;20447;-85
2022/12/24 08:38:02;;;;;;;16.33;12.45;;;;;;;5.88;100.00;100070.81;5036575;28;20052;-85
2022/12/24 08:40:29;;;;;;;20.95;12.57;;;;;;;5.84;100.00;100077.13;5033796;28;20620;-85
2022/12/24 08:42:57;;;;;;;18.42;13.38;;;;;;;5.83;100.00;100075.44;5041996;28;20047;-85
2022/12/24 08:45:24;;;;;;;23.05;14.05;;;;;;;5.84;100.00;100082.34;5059810;28;20051;-86
2022/12/24 08:47:51;;;;;;;17.63;12.88;;;;;;;5.86;100.00;100083.13;5049157;28;20041;-86
2022/12/24 08:50:19;;;;;;;18.20;11.88;;;;;;;5.87;100.00;100079.59;5064545;28;20071;-87
2022/12/24 08:52:46;;;;;;;18.08;11.77;;;;;;;5.84;100.00;100082.34;5029911;28;20048;-87
2022/12/24 08:55:13;;;;;;;16.60;11.57;;;;;;;5.87;100.00;100089.19;5038936;28;20052;-88
2022/12/24 08:57:41;;;;;;;17.80;12.23;;;;;;;5.91;100.00;100090.75;5027162;28;20123;-87
2022/12/24 09:00:08;;;;;;;16.13;10.77;;;;;;;5.89;100.00;100090.78;5032934;28;20041;-88
2022/12/24 09:02:36;;;;;;;19.13;12.18;;;;;;;5.82;100.00;100098.09;5051328;28;20113;-87
2022/12/24 09:05:04;;;;;;;16.98;11.80;;;;;;;5.80;100.00;100099.06;5040674;28;20076;-87
2022/12/24 09:07:31;;;;;;;15.23;11.75;;;;;;;5.82;100.00;100097.25;5024245;28;20079;-85
2022/12/24 09:09:58;;;;;;;16.27;11.48;;;;;;;5.87;100.00;100100.50;5030960;28;20666;-85
2022/12/24 09:12:26;;;;;;;15.68;11.60;;;;;;;5.84;100.00;100106.69;5025876;28;20057;-86
2022/12/24 09:14:53;;;;;;;14.48;10.57;;;;;;;5.89;100.00;100109.09;5058331;28;20574;-85
2022/12/24 09:17:29;;;;;;;16.73;10.73;;;;;;;5.92;100.00;100114.22;5062365;28;20039;-85
2022/12/24 09:19:56;;;;;;;14.13;10.25;;;;;;;5.93;100.00;100121.13;5049712;28;20033;-85
2022/12/24 09:22:23;;;;;;;13.80;10.15;;;;;;;5.92;100.00;100127.25;5041949;28;20041;-86
2022/12/24 09:24:53;;;;;;;15.85;10.98;;;;;;;5.96;100.00;100123.59;5052521;28;20055;-86
2022/12/24 09:27:20;;;;;;;14.70;11.02;;;;;;;6.00;100.00;100132.97;5045076;28;20039;-85
2022/12/24 09:29:47;;;;;;;15.10;11.13;;;;;;;6.01;100.00;100126.81;5075307;28;20058;-85
2022/12/24 09:32:15;;;;;;;13.57;10.07;;;;;;;6.01;100.00;100131.22;5057717;28;20041;-84
2022/12/24 09:34:42;;;;;;;13.07;9.73;;;;;;;6.03;100.00;100132.84;5038339;28;20041;-85
2022/12/24 09:37:10;;;;;;;13.43;10.43;;;;;;;6.01;100.00;100142.50;5034220;28;20060;-86
2022/12/24 09:39:38;;;;;;;15.85;11.15;;;;;;;6.03;100.00;100145.91;5038247;28;20077;-85
2022/12/24 09:42:28;;;;;;;15.73;10.80;;;;;;;6.03;100.00;100145.91;5046566;28;20052;-86
2022/12/24 09:45:18;;;;;;;14.90;11.02;;;;;;;5.97;100.00;100159.25;5026277;28;20060;-84
2022/12/24 09:47:52;;;;;;;12.18;9.80;;;;;;;6.02;100.00;100166.88;5038878;28;20063;-85
2022/12/24 09:50:35;;;;;;;16.17;9.82;;;;;;;6.07;100.00;100170.09;5034484;28;20044;-85
2022/12/24 09:53:11;;;;;;;14.75;10.75;;;;;;;6.10;100.00;100167.34;5060517;28;20036;-85
2022/12/24 09:55:46;;;;;;;16.13;10.98;;;;;;;6.00;100.00;100176.56;5043956;28;20044;-86
2022/12/24 09:58:34;;;;;;;15.57;11.18;;;;;;;5.92;100.00;100179.50;5049868;28;20036;-85
2022/12/24 10:01:01;;;;;;;18.30;10.38;;;;;;;5.90;100.00;100183.94;5057420;28;20071;-86
2022/12/24 10:03:29;;;;;;;16.27;11.45;;;;;;;5.90;100.00;100183.94;5031069;28;20067;-85
2022/12/24 10:06:11;;;;;;;14.65;10.38;;;;;;;5.94;100.00;100182.03;5026615;28;20052;-86
2022/12/24 10:09:06;;;;;;;16.30;11.02;;;;;;;5.97;100.00;100190.59;5026421;28;20076;-86
2022/12/24 10:11:45;;;;;;;14.40;10.85;;;;;;;6.03;100.00;100198.16;5061013;28;20064;-84
2022/12/24 10:14:40;;;;;;;17.23;11.88;;;;;;;6.12;100.00;100211.69;5057827;28;20050;-86
2022/12/24 10:17:33;;;;;;;18.23;12.25;;;;;;;6.06;100.00;100205.84;5054317;28;20032;-86
2022/12/24 10:20:10;;;;;;;16.90;12.18;;;;;;;6.07;100.00;100204.06;5060694;28;20042;-85
2022/12/24 10:22:37;;;;;;;17.25;11.93;;;;;;;6.01;100.00;100205.22;5050430;28;20151;-86
2022/12/24 10:25:14;;;;;;;17.83;13.32;;;;;;;6.05;100.00;100217.22;5059689;28;20508;-87
2022/12/24 10:27:41;;;;;;;17.08;12.02;;;;;;;6.12;100.00;100211.69;5064831;28;20048;-87
2022/12/24 10:30:14;;;;;;;16.50;12.30;;;;;;;6.18;100.00;100214.03;5054389;28;20085;-87
2022/12/24 10:32:46;;;;;;;20.13;14.48;;;;;;;6.17;100.00;100220.16;5050685;28;20040;-87
2022/12/24 10:35:13;;;;;;;19.55;15.10;;;;;;;6.15;100.00;100222.00;5045822;28;20376;-87
2022/12/24 10:37:42;;;;;;;20.17;14.00;;;;;;;6.13;100.00;100229.09;5086684;28;20060;-87
2022/12/24 10:40:43;;;;;;;17.90;12.60;;;;;;;6.16;100.00;100232.38;5044633;28;20041;-87
2022/12/24 10:43:13;;;;;;;21.25;14.48;;;;;;;6.17;100.00;100233.22;5033968;28;20041;-87
2022/12/24 10:45:45;;;;;;;18.25;13.45;;;;;;;6.20;100.00;100238.31;5035827;28;20125;-87
2022/12/24 10:48:25;;;;;;;20.42;14.05;;;;;;;6.25;100.00;100238.94;5047607;28;20372;-86
2022/12/24 10:51:02;;;;;;;19.73;13.00;;;;;;;6.30;100.00;100239.56;5061361;28;20044;-84
2022/12/24 10:53:48;;;;;;;19.60;14.35;;;;;;;6.37;100.00;100248.00;5031551;28;20049;-87
2022/12/24 10:56:16;;;;;;;;;;;;;;;6.44;100.00;100247.63;5038602;28;20040;-85
2022/12/24 10:58:45;;;;;;;19.63;14.70;;;;;;;6.41;100.00;100247.78;5047335;28;19959;-84
2022/12/24 11:01:12;;;;;;;22.65;15.38;;;;;;;6.39;100.00;100246.13;5024714;28;20056;-84
2022/12/24 11:03:41;;;;;;;19.25;14.57;;;;;;;6.43;100.00;100258.16;5058610;28;20479;-84
2022/12/24 11:06:10;;;;;;;16.98;12.30;;;;;;;6.44;100.00;100259.84;5042666;28;20076;-86
2022/12/24 11:08:40;;;;;;;19.77;15.25;;;;;;;6.43;100.00;100261.59;5030637;28;20072;-85
2022/12/24 11:11:18;;;;;;;18.77;14.00;;;;;;;6.40;100.00;100259.16;5029657;28;20033;-85
2022/12/24 11:13:56;;;;;;;21.52;14.90;;;;;;;6.41;100.00;100265.22;5047327;28;20328;-86
2022/12/24 11:16:29;;;;;;;20.70;15.15;;;;;;;6.42;100.00;100270.38;5027975;28;20100;-86
2022/12/24 11:18:58;;;;;;;17.00;12.73;;;;;;;6.43;100.00;100272.06;5043729;28;20120;-85
2022/12/24 11:21:39;;;;;;;17.52;13.35;;;;;;;6.50;100.00;100270.88;5049046;28;20037;-86
2022/12/24 11:24:21;;;;;;;19.33;15.27;;;;;;;6.48;100.00;100270.06;5065871;28;20033;-85
2022/12/24 11:26:48;;;;;;;19.15;13.82;;;;;;;6.47;100.00;100263.16;5063873;28;20028;-84
2022/12/24 11:29:26;;;;;;;18.33;13.55;;;;;;;6.48;100.00;100267.47;5044601;28;20036;-85
2022/12/24 11:32:29;;;;;;;17.35;13.13;;;;;;;6.54;100.00;100264.56;5045907;28;20064;-85
2022/12/24 11:35:05;;;;;;;16.60;12.52;;;;;;;6.53;100.00;100270.72;5005713;28;20056;-85
2022/12/24 11:37:33;;;;;;;15.93;12.93;;;;;;;6.55;100.00;100275.88;5034369;28;20450;-85
2022/12/24 11:40:01;;;;;;;15.30;12.30;;;;;;;6.50;100.00;100273.47;5036461;28;20057;-85
2022/12/24 11:42:37;;;;;;;15.57;12.27;;;;;;;6.47;100.00;100283.22;5042801;28;20045;-86
2022/12/24 11:45:16;;;;;;;;;;;;;;;6.46;100.00;100286.78;5039016;28;20041;-86